Chester, Maryland
Current Conditions -  °F | °C
As of 6:54 AM on Sunday 23 Nov 2014 (Local Time) from KNAK Reporting Station
Clear Clear  
Wind Chill: 37°   Ceiling: Unl
Heat Index: 40°   Visibility: 10mi
Dew Point: 19°   Wind: 5mph
Humidity: 43%   Direction: 170°S
Pressure: 30.24"   Gusts: NA
Location:  38.98°N, 76.29°W
Report Text: KNAK 231154Z AUTO 17004KT 10SM CLR 04/M07 A3024 RMK AO2 SLP241 T00441072 10072 20039 53012
Loading
Personal Weather Stations






























Interactive Weather Map New forecast layout! Learn more

10-Day Weather Forecast

Advertisements
Track Severe Weather on mobile